Freedom, Oklahoma
Current Conditions -  °F | °C
As of 11:10 PM on Thursday 30 Oct 2014 (Local Time) from KAVK Reporting Station
Clear Clear  
Wind Chill: 50°   Ceiling: Unl
Heat Index: 50°   Visibility: 10mi
Dew Point: 32°   Wind: 7mph
Humidity: 50%   Direction: 330°NNW
Pressure: 30.29"   Gusts: NA
Location:  36.77°N, 99.11°W
Report Text: KAVK 310410Z AUTO 33006KT 10SM CLR 10/00 A3029 RMK AO2
Loading
Personal Weather Stations






























Interactive Weather Map
Tropical Storm Tracking
New forecast layout! Learn more

10-Day Weather Forecast

Advertisements
Track Severe Weather on mobile